sensor_id;sensor_type;location;lat;lon;timestamp;temperature;humidity
36280;DHT22;22317;47.936;12.742;2022-10-15T00:00:36;11.80;63.30
36280;DHT22;22317;47.936;12.742;2022-10-15T00:03:02;11.80;63.90
36280;DHT22;22317;47.936;12.742;2022-10-15T00:05:28;11.80;63.80
36280;DHT22;22317;47.936;12.742;2022-10-15T00:07:53;11.70;63.70
36280;DHT22;22317;47.936;12.742;2022-10-15T00:10:19;11.70;63.90
36280;DHT22;22317;47.936;12.742;2022-10-15T00:12:45;11.70;63.40
36280;DHT22;22317;47.936;12.742;2022-10-15T00:15:11;11.70;63.50
36280;DHT22;22317;47.936;12.742;2022-10-15T00:17:37;11.80;64.10
36280;DHT22;22317;47.936;12.742;2022-10-15T00:20:06;11.80;63.60
36280;DHT22;22317;47.936;12.742;2022-10-15T00:22:32;11.80;64.10
36280;DHT22;22317;47.936;12.742;2022-10-15T00:24:58;11.80;64.10
36280;DHT22;22317;47.936;12.742;2022-10-15T00:27:24;11.80;64.00
36280;DHT22;22317;47.936;12.742;2022-10-15T00:29:49;11.80;63.60
36280;DHT22;22317;47.936;12.742;2022-10-15T00:32:16;11.70;64.20
36280;DHT22;22317;47.936;12.742;2022-10-15T00:34:41;11.80;64.20
36280;DHT22;22317;47.936;12.742;2022-10-15T00:37:07;11.70;64.20
36280;DHT22;22317;47.936;12.742;2022-10-15T00:39:34;11.80;64.30
36280;DHT22;22317;47.936;12.742;2022-10-15T00:42:00;11.70;63.80
36280;DHT22;22317;47.936;12.742;2022-10-15T00:47:34;11.70;64.30
36280;DHT22;22317;47.936;12.742;2022-10-15T00:50:10;11.70;63.90
36280;DHT22;22317;47.936;12.742;2022-10-15T00:55:10;11.70;64.50
36280;DHT22;22317;47.936;12.742;2022-10-15T00:57:40;11.70;64.50
36280;DHT22;22317;47.936;12.742;2022-10-15T01:00:11;11.70;63.90
36280;DHT22;22317;47.936;12.742;2022-10-15T01:02:40;11.70;64.50
36280;DHT22;22317;47.936;12.742;2022-10-15T01:05:06;11.60;64.50
36280;DHT22;22317;47.936;12.742;2022-10-15T01:07:33;11.60;64.60
36280;DHT22;22317;47.936;12.742;2022-10-15T01:09:59;11.60;64.00
36280;DHT22;22317;47.936;12.742;2022-10-15T01:26:40;11.60;65.20
36280;DHT22;22317;47.936;12.742;2022-10-15T01:37:35;11.60;65.30
36280;DHT22;22317;47.936;12.742;2022-10-15T01:40:09;11.60;64.60
36280;DHT22;22317;47.936;12.742;2022-10-15T01:42:50;11.70;65.30
36280;DHT22;22317;47.936;12.742;2022-10-15T01:45:24;11.70;65.30
36280;DHT22;22317;47.936;12.742;2022-10-15T01:48:11;11.70;65.30
36280;DHT22;22317;47.936;12.742;2022-10-15T01:50:41;11.70;64.80
36280;DHT22;22317;47.936;12.742;2022-10-15T01:53:09;11.70;65.40
36280;DHT22;22317;47.936;12.742;2022-10-15T01:55:41;11.70;65.40
36280;DHT22;22317;47.936;12.742;2022-10-15T01:58:09;11.70;65.40
36280;DHT22;22317;47.936;12.742;2022-10-15T02:00:37;11.70;64.90
36280;DHT22;22317;47.936;12.742;2022-10-15T02:03:03;11.70;65.40
36280;DHT22;22317;47.936;12.742;2022-10-15T02:05:37;11.70;65.30
36280;DHT22;22317;47.936;12.742;2022-10-15T02:08:24;11.70;65.40
36280;DHT22;22317;47.936;12.742;2022-10-15T02:10:59;11.70;64.80
36280;DHT22;22317;47.936;12.742;2022-10-15T02:13:34;11.70;65.40
36280;DHT22;22317;47.936;12.742;2022-10-15T02:18:39;11.70;65.30
36280;DHT22;22317;47.936;12.742;2022-10-15T02:21:20;11.70;64.90
36280;DHT22;22317;47.936;12.742;2022-10-15T02:24:10;11.70;65.40
36280;DHT22;22317;47.936;12.742;2022-10-15T02:26:40;11.70;65.40
36280;DHT22;22317;47.936;12.742;2022-10-15T02:29:10;11.70;65.40
36280;DHT22;22317;47.936;12.742;2022-10-15T02:31:41;11.60;64.90
36280;DHT22;22317;47.936;12.742;2022-10-15T02:34:10;11.70;65.40
36280;DHT22;22317;47.936;12.742;2022-10-15T02:36:41;11.70;65.40
36280;DHT22;22317;47.936;12.742;2022-10-15T02:39:10;11.60;65.50
36280;DHT22;22317;47.936;12.742;2022-10-15T02:41:38;11.70;65.20
36280;DHT22;22317;47.936;12.742;2022-10-15T02:44:05;11.60;65.60
36280;DHT22;22317;47.936;12.742;2022-10-15T02:46:30;11.60;65.10
36280;DHT22;22317;47.936;12.742;2022-10-15T02:48:56;11.60;65.60
36280;DHT22;22317;47.936;12.742;2022-10-15T02:51:22;11.60;65.10
36280;DHT22;22317;47.936;12.742;2022-10-15T02:53:48;11.70;65.80
36280;DHT22;22317;47.936;12.742;2022-10-15T02:56:14;11.60;65.10
36280;DHT22;22317;47.936;12.742;2022-10-15T02:58:40;11.70;65.80
36280;DHT22;22317;47.936;12.742;2022-10-15T03:01:06;11.60;65.30
36280;DHT22;22317;47.936;12.742;2022-10-15T03:03:32;11.60;65.80
36280;DHT22;22317;47.936;12.742;2022-10-15T03:05:58;11.60;65.90
36280;DHT22;22317;47.936;12.742;2022-10-15T03:08:24;11.70;65.90
36280;DHT22;22317;47.936;12.742;2022-10-15T03:10:50;11.60;65.50
36280;DHT22;22317;47.936;12.742;2022-10-15T03:13:16;11.70;66.00
36280;DHT22;22317;47.936;12.742;2022-10-15T03:15:49;11.70;66.00
36280;DHT22;22317;47.936;12.742;2022-10-15T03:18:15;11.60;66.00
36280;DHT22;22317;47.936;12.742;2022-10-15T03:20:41;11.60;65.60
36280;DHT22;22317;47.936;12.742;2022-10-15T03:23:07;11.60;66.10
36280;DHT22;22317;47.936;12.742;2022-10-15T03:25:33;11.60;66.10
36280;DHT22;22317;47.936;12.742;2022-10-15T03:28:02;11.70;65.70
36280;DHT22;22317;47.936;12.742;2022-10-15T03:30:41;11.60;65.60
36280;DHT22;22317;47.936;12.742;2022-10-15T03:33:07;11.60;66.20
36280;DHT22;22317;47.936;12.742;2022-10-15T03:35:34;11.60;66.20
36280;DHT22;22317;47.936;12.742;2022-10-15T03:38:00;11.60;65.70
36280;DHT22;22317;47.936;12.742;2022-10-15T03:40:26;11.70;65.80
36280;DHT22;22317;47.936;12.742;2022-10-15T03:42:56;11.70;66.30
36280;DHT22;22317;47.936;12.742;2022-10-15T03:45:23;11.70;66.30
36280;DHT22;22317;47.936;12.742;2022-10-15T03:48:02;11.70;66.30
36280;DHT22;22317;47.936;12.742;2022-10-15T03:50:31;11.70;65.80
36280;DHT22;22317;47.936;12.742;2022-10-15T03:53:04;11.70;65.70
36280;DHT22;22317;47.936;12.742;2022-10-15T03:55:30;11.70;66.30
36280;DHT22;22317;47.936;12.742;2022-10-15T03:57:56;11.70;66.30
36280;DHT22;22317;47.936;12.742;2022-10-15T04:00:22;11.60;65.60
36280;DHT22;22317;47.936;12.742;2022-10-15T04:02:51;11.70;67.00
36280;DHT22;22317;47.936;12.742;2022-10-15T04:05:23;11.70;66.30
36280;DHT22;22317;47.936;12.742;2022-10-15T04:07:53;11.70;66.40
36280;DHT22;22317;47.936;12.742;2022-10-15T04:10:20;11.60;65.90
36280;DHT22;22317;47.936;12.742;2022-10-15T04:12:46;11.60;66.50
36280;DHT22;22317;47.936;12.742;2022-10-15T04:15:15;11.60;66.00
36280;DHT22;22317;47.936;12.742;2022-10-15T04:17:48;11.60;66.60
36280;DHT22;22317;47.936;12.742;2022-10-15T04:20:14;11.60;66.00
36280;DHT22;22317;47.936;12.742;2022-10-15T04:22:42;11.70;66.70
36280;DHT22;22317;47.936;12.742;2022-10-15T04:25:08;11.70;66.60
36280;DHT22;22317;47.936;12.742;2022-10-15T04:27:34;11.70;66.60
36280;DHT22;22317;47.936;12.742;2022-10-15T04:30:07;11.70;66.00
36280;DHT22;22317;47.936;12.742;2022-10-15T04:32:35;11.70;66.60
36280;DHT22;22317;47.936;12.742;2022-10-15T04:35:01;11.70;66.60
36280;DHT22;22317;47.936;12.742;2022-10-15T04:37:47;11.70;66.60
36280;DHT22;22317;47.936;12.742;2022-10-15T04:40:12;11.70;66.70
36280;DHT22;22317;47.936;12.742;2022-10-15T04:42:39;11.70;67.20
36280;DHT22;22317;47.936;12.742;2022-10-15T04:45:06;11.70;66.60
36280;DHT22;22317;47.936;12.742;2022-10-15T04:47:32;11.70;66.60
36280;DHT22;22317;47.936;12.742;2022-10-15T04:50:06;11.60;66.00
36280;DHT22;22317;47.936;12.742;2022-10-15T04:52:51;11.60;66.60
36280;DHT22;22317;47.936;12.742;2022-10-15T04:55:17;11.60;66.60
36280;DHT22;22317;47.936;12.742;2022-10-15T04:57:42;11.60;66.60
36280;DHT22;22317;47.936;12.742;2022-10-15T05:00:09;11.60;66.10
36280;DHT22;22317;47.936;12.742;2022-10-15T05:03:01;11.60;66.70
36280;DHT22;22317;47.936;12.742;2022-10-15T05:05:38;11.60;66.80
36280;DHT22;22317;47.936;12.742;2022-10-15T05:08:04;11.60;66.90
36280;DHT22;22317;47.936;12.742;2022-10-15T05:13:16;11.60;66.40
36280;DHT22;22317;47.936;12.742;2022-10-15T05:15:42;11.50;66.90
36280;DHT22;22317;47.936;12.742;2022-10-15T05:18:09;11.60;67.00
36280;DHT22;22317;47.936;12.742;2022-10-15T05:20:43;11.60;66.50
36280;DHT22;22317;47.936;12.742;2022-10-15T05:23:14;11.50;66.50
36280;DHT22;22317;47.936;12.742;2022-10-15T05:28:13;11.60;66.50
36280;DHT22;22317;47.936;12.742;2022-10-15T05:30:39;11.60;66.60
36280;DHT22;22317;47.936;12.742;2022-10-15T05:33:04;11.60;67.20
36280;DHT22;22317;47.936;12.742;2022-10-15T05:35:30;11.50;67.10
36280;DHT22;22317;47.936;12.742;2022-10-15T05:38:00;11.50;67.10
36280;DHT22;22317;47.936;12.742;2022-10-15T05:40:26;11.60;66.60
36280;DHT22;22317;47.936;12.742;2022-10-15T05:43:21;11.60;67.20
36280;DHT22;22317;47.936;12.742;2022-10-15T05:45:47;11.60;67.10
36280;DHT22;22317;47.936;12.742;2022-10-15T05:48:13;11.60;66.60
36280;DHT22;22317;47.936;12.742;2022-10-15T05:50:40;11.60;66.70
36280;DHT22;22317;47.936;12.742;2022-10-15T05:53:10;11.60;67.30
36280;DHT22;22317;47.936;12.742;2022-10-15T05:55:43;11.60;67.30
36280;DHT22;22317;47.936;12.742;2022-10-15T05:58:11;11.50;67.20
36280;DHT22;22317;47.936;12.742;2022-10-15T06:00:37;11.60;67.30
36280;DHT22;22317;47.936;12.742;2022-10-15T06:03:04;11.60;67.30
36280;DHT22;22317;47.936;12.742;2022-10-15T06:05:30;11.50;67.30
36280;DHT22;22317;47.936;12.742;2022-10-15T06:07:56;11.50;67.40
36280;DHT22;22317;47.936;12.742;2022-10-15T06:10:22;11.50;66.90
36280;DHT22;22317;47.936;12.742;2022-10-15T06:12:51;11.60;67.50
36280;DHT22;22317;47.936;12.742;2022-10-15T06:15:17;11.60;67.50
36280;DHT22;22317;47.936;12.742;2022-10-15T06:17:43;11.60;67.50
36280;DHT22;22317;47.936;12.742;2022-10-15T06:20:10;11.60;67.10
36280;DHT22;22317;47.936;12.742;2022-10-15T06:22:36;11.60;67.60
36280;DHT22;22317;47.936;12.742;2022-10-15T06:25:02;11.60;67.60
36280;DHT22;22317;47.936;12.742;2022-10-15T06:27:28;11.70;67.60
36280;DHT22;22317;47.936;12.742;2022-10-15T06:29:53;11.70;67.00
36280;DHT22;22317;47.936;12.742;2022-10-15T06:32:19;11.70;67.60
36280;DHT22;22317;47.936;12.742;2022-10-15T06:34:45;11.70;67.60
36280;DHT22;22317;47.936;12.742;2022-10-15T06:37:10;11.70;67.60
36280;DHT22;22317;47.936;12.742;2022-10-15T06:39:36;11.70;67.50
36280;DHT22;22317;47.936;12.742;2022-10-15T06:42:02;11.70;67.00
36280;DHT22;22317;47.936;12.742;2022-10-15T06:44:37;11.80;67.60
36280;DHT22;22317;47.936;12.742;2022-10-15T06:47:03;11.80;67.60
36280;DHT22;22317;47.936;12.742;2022-10-15T06:49:29;11.70;67.50
36280;DHT22;22317;47.936;12.742;2022-10-15T06:51:55;11.70;67.50
36280;DHT22;22317;47.936;12.742;2022-10-15T06:54:20;11.70;67.50
36280;DHT22;22317;47.936;12.742;2022-10-15T06:56:46;11.70;67.70
36280;DHT22;22317;47.936;12.742;2022-10-15T06:59:12;11.70;68.00
36280;DHT22;22317;47.936;12.742;2022-10-15T07:01:37;11.70;68.00
36280;DHT22;22317;47.936;12.742;2022-10-15T07:04:03;11.70;67.60
36280;DHT22;22317;47.936;12.742;2022-10-15T07:06:29;11.70;67.60
36280;DHT22;22317;47.936;12.742;2022-10-15T07:08:55;11.70;68.20
36280;DHT22;22317;47.936;12.742;2022-10-15T07:11:22;11.70;67.80
36280;DHT22;22317;47.936;12.742;2022-10-15T07:13:48;11.70;68.30
36280;DHT22;22317;47.936;12.742;2022-10-15T07:16:13;11.60;67.70
36280;DHT22;22317;47.936;12.742;2022-10-15T07:18:39;11.70;68.50
36280;DHT22;22317;47.936;12.742;2022-10-15T07:21:06;11.70;68.10
36280;DHT22;22317;47.936;12.742;2022-10-15T07:23:33;11.60;68.00
36280;DHT22;22317;47.936;12.742;2022-10-15T07:25:59;11.70;68.20
36280;DHT22;22317;47.936;12.742;2022-10-15T07:28:25;11.70;68.80
36280;DHT22;22317;47.936;12.742;2022-10-15T07:30:52;11.70;68.30
36280;DHT22;22317;47.936;12.742;2022-10-15T07:33:18;11.70;68.80
36280;DHT22;22317;47.936;12.742;2022-10-15T07:35:54;11.70;68.80
36280;DHT22;22317;47.936;12.742;2022-10-15T07:38:19;11.70;68.90
36280;DHT22;22317;47.936;12.742;2022-10-15T07:40:45;11.80;68.50
36280;DHT22;22317;47.936;12.742;2022-10-15T07:43:11;11.80;69.00
36280;DHT22;22317;47.936;12.742;2022-10-15T07:45:39;11.80;68.90
36280;DHT22;22317;47.936;12.742;2022-10-15T07:48:05;11.80;68.90
36280;DHT22;22317;47.936;12.742;2022-10-15T07:50:30;11.80;68.40
36280;DHT22;22317;47.936;12.742;2022-10-15T07:52:59;11.80;68.90
36280;DHT22;22317;47.936;12.742;2022-10-15T07:55:24;11.90;69.00
36280;DHT22;22317;47.936;12.742;2022-10-15T07:57:50;11.90;69.00
36280;DHT22;22317;47.936;12.742;2022-10-15T08:00:16;11.90;69.10
36280;DHT22;22317;47.936;12.742;2022-10-15T08:02:41;11.90;68.90
36280;DHT22;22317;47.936;12.742;2022-10-15T08:05:07;11.90;68.90
36280;DHT22;22317;47.936;12.742;2022-10-15T08:07:33;12.00;69.20
36280;DHT22;22317;47.936;12.742;2022-10-15T08:10:00;12.00;68.50
36280;DHT22;22317;47.936;12.742;2022-10-15T08:12:26;12.00;69.10
36280;DHT22;22317;47.936;12.742;2022-10-15T08:14:51;12.00;68.50
36280;DHT22;22317;47.936;12.742;2022-10-15T08:17:18;11.70;69.00
36280;DHT22;22317;47.936;12.742;2022-10-15T08:19:44;12.10;68.70
36280;DHT22;22317;47.936;12.742;2022-10-15T08:22:10;12.10;68.70
36280;DHT22;22317;47.936;12.742;2022-10-15T08:24:37;12.20;69.30
36280;DHT22;22317;47.936;12.742;2022-10-15T08:27:03;12.20;68.70
36280;DHT22;22317;47.936;12.742;2022-10-15T08:29:28;12.20;69.10
36280;DHT22;22317;47.936;12.742;2022-10-15T08:31:54;12.20;69.20
36280;DHT22;22317;47.936;12.742;2022-10-15T08:34:22;12.20;69.40
36280;DHT22;22317;47.936;12.742;2022-10-15T08:36:48;12.20;69.50
36280;DHT22;22317;47.936;12.742;2022-10-15T08:39:14;12.30;69.60
36280;DHT22;22317;47.936;12.742;2022-10-15T08:47:13;12.40;69.70
36280;DHT22;22317;47.936;12.742;2022-10-15T08:49:55;12.50;69.10
36280;DHT22;22317;47.936;12.742;2022-10-15T08:52:48;12.60;69.70
36280;DHT22;22317;47.936;12.742;2022-10-15T08:55:20;12.60;69.70
36280;DHT22;22317;47.936;12.742;2022-10-15T09:00:51;12.80;69.00
36280;DHT22;22317;47.936;12.742;2022-10-15T09:03:38;12.80;69.40
36280;DHT22;22317;47.936;12.742;2022-10-15T09:06:17;12.90;69.20
36280;DHT22;22317;47.936;12.742;2022-10-15T09:11:49;12.90;69.20
36280;DHT22;22317;47.936;12.742;2022-10-15T09:14:22;13.00;69.10
36280;DHT22;22317;47.936;12.742;2022-10-15T09:19:20;13.00;68.10
36280;DHT22;22317;47.936;12.742;2022-10-15T09:21:47;13.00;68.50
36280;DHT22;22317;47.936;12.742;2022-10-15T09:24:22;13.00;68.50
36280;DHT22;22317;47.936;12.742;2022-10-15T09:29:41;13.10;68.80
36280;DHT22;22317;47.936;12.742;2022-10-15T09:35:21;13.20;68.40
36280;DHT22;22317;47.936;12.742;2022-10-15T09:43:09;13.20;68.30
36280;DHT22;22317;47.936;12.742;2022-10-15T09:45:35;13.20;68.30
36280;DHT22;22317;47.936;12.742;2022-10-15T09:48:04;13.20;68.30
36280;DHT22;22317;47.936;12.742;2022-10-15T09:50:43;13.30;67.80
36280;DHT22;22317;47.936;12.742;2022-10-15T09:53:22;13.30;68.40
36280;DHT22;22317;47.936;12.742;2022-10-15T09:58:56;13.30;68.40
36280;DHT22;22317;47.936;12.742;2022-10-15T10:01:28;13.30;68.50
36280;DHT22;22317;47.936;12.742;2022-10-15T10:04:12;13.40;68.50
36280;DHT22;22317;47.936;12.742;2022-10-15T10:06:49;13.50;68.70
36280;DHT22;22317;47.936;12.742;2022-10-15T10:09:24;13.70;68.70
36280;DHT22;22317;47.936;12.742;2022-10-15T10:15:06;14.10;68.20
36280;DHT22;22317;47.936;12.742;2022-10-15T10:17:20;14.40;68.50
36280;DHT22;22317;47.936;12.742;2022-10-15T10:22:54;14.90;68.00
36280;DHT22;22317;47.936;12.742;2022-10-15T10:28:14;15.20;66.60
36280;DHT22;22317;47.936;12.742;2022-10-15T10:33:45;15.20;66.00
36280;DHT22;22317;47.936;12.742;2022-10-15T10:36:38;15.50;65.60
36280;DHT22;22317;47.936;12.742;2022-10-15T10:49:30;16.60;64.50
36280;DHT22;22317;47.936;12.742;2022-10-15T10:51:58;16.80;64.20
36280;DHT22;22317;47.936;12.742;2022-10-15T10:54:25;17.00;63.50
36280;DHT22;22317;47.936;12.742;2022-10-15T10:56:51;17.20;62.40
36280;DHT22;22317;47.936;12.742;2022-10-15T10:59:24;17.50;63.20
36280;DHT22;22317;47.936;12.742;2022-10-15T11:01:51;17.90;62.50
36280;DHT22;22317;47.936;12.742;2022-10-15T11:04:25;18.20;61.80
36280;DHT22;22317;47.936;12.742;2022-10-15T11:15:38;17.30;56.90
36280;DHT22;22317;47.936;12.742;2022-10-15T11:24:26;20.70;55.10
36280;DHT22;22317;47.936;12.742;2022-10-15T11:27:12;20.70;53.90
36280;DHT22;22317;47.936;12.742;2022-10-15T11:30:00;20.70;53.80
36280;DHT22;22317;47.936;12.742;2022-10-15T11:43:02;20.40;51.50
36280;DHT22;22317;47.936;12.742;2022-10-15T11:49:36;20.00;51.50
36280;DHT22;22317;47.936;12.742;2022-10-15T11:54:30;19.80;51.70
36280;DHT22;22317;47.936;12.742;2022-10-15T11:57:01;19.80;52.00
36280;DHT22;22317;47.936;12.742;2022-10-15T11:59:55;19.80;52.20
36280;DHT22;22317;47.936;12.742;2022-10-15T12:02:49;19.80;52.00
36280;DHT22;22317;47.936;12.742;2022-10-15T12:05:32;19.90;51.80
36280;DHT22;22317;47.936;12.742;2022-10-15T12:08:00;19.90;51.90
36280;DHT22;22317;47.936;12.742;2022-10-15T12:11:15;20.00;52.10
36280;DHT22;22317;47.936;12.742;2022-10-15T12:13:41;20.40;52.30
36280;DHT22;22317;47.936;12.742;2022-10-15T12:19:41;23.20;50.20
36280;DHT22;22317;47.936;12.742;2022-10-15T12:22:08;23.80;48.20
36280;DHT22;22317;47.936;12.742;2022-10-15T12:29:45;23.60;44.80
36280;DHT22;22317;47.936;12.742;2022-10-15T12:32:23;23.60;45.10
36280;DHT22;22317;47.936;12.742;2022-10-15T12:35:02;23.40;45.00
36280;DHT22;22317;47.936;12.742;2022-10-15T12:37:31;23.30;45.40
36280;DHT22;22317;47.936;12.742;2022-10-15T12:40:02;23.70;46.40
36280;DHT22;22317;47.936;12.742;2022-10-15T12:42:36;23.80;46.30
36280;DHT22;22317;47.936;12.742;2022-10-15T12:45:20;24.60;45.50
36280;DHT22;22317;47.936;12.742;2022-10-15T12:50:34;24.90;42.30
36280;DHT22;22317;47.936;12.742;2022-10-15T12:53:11;24.60;41.20
36280;DHT22;22317;47.936;12.742;2022-10-15T12:56:36;24.20;41.90
36280;DHT22;22317;47.936;12.742;2022-10-15T12:59:03;23.70;41.80
36280;DHT22;22317;47.936;12.742;2022-10-15T13:01:50;23.10;42.10
36280;DHT22;22317;47.936;12.742;2022-10-15T13:04:17;22.60;42.30
36280;DHT22;22317;47.936;12.742;2022-10-15T13:06:43;22.20;43.10
36280;DHT22;22317;47.936;12.742;2022-10-15T13:14:30;21.10;43.70
36280;DHT22;22317;47.936;12.742;2022-10-15T13:17:01;20.70;44.20
36280;DHT22;22317;47.936;12.742;2022-10-15T13:19:37;20.50;44.80
36280;DHT22;22317;47.936;12.742;2022-10-15T13:22:06;20.40;45.50
36280;DHT22;22317;47.936;12.742;2022-10-15T13:24:44;20.30;45.80
36280;DHT22;22317;47.936;12.742;2022-10-15T13:27:30;20.30;46.20
36280;DHT22;22317;47.936;12.742;2022-10-15T13:30:02;20.60;46.50
36280;DHT22;22317;47.936;12.742;2022-10-15T13:32:36;20.70;46.70
36280;DHT22;22317;47.936;12.742;2022-10-15T13:35:10;20.90;46.80
36280;DHT22;22317;47.936;12.742;2022-10-15T13:37:37;21.30;47.00
36280;DHT22;22317;47.936;12.742;2022-10-15T13:40:07;21.80;47.20
36280;DHT22;22317;47.936;12.742;2022-10-15T13:42:33;22.40;46.30
36280;DHT22;22317;47.936;12.742;2022-10-15T13:45:15;22.60;45.40
36280;DHT22;22317;47.936;12.742;2022-10-15T13:47:45;22.80;45.00
36280;DHT22;22317;47.936;12.742;2022-10-15T13:52:40;23.20;44.00
36280;DHT22;22317;47.936;12.742;2022-10-15T13:55:25;23.20;43.70
36280;DHT22;22317;47.936;12.742;2022-10-15T13:58:03;23.10;43.20
36280;DHT22;22317;47.936;12.742;2022-10-15T14:00:35;23.00;43.30
36280;DHT22;22317;47.936;12.742;2022-10-15T14:03:16;23.10;43.50
36280;DHT22;22317;47.936;12.742;2022-10-15T14:05:46;23.10;43.40
36280;DHT22;22317;47.936;12.742;2022-10-15T14:08:23;23.20;43.40
36280;DHT22;22317;47.936;12.742;2022-10-15T14:10:51;23.90;44.70
36280;DHT22;22317;47.936;12.742;2022-10-15T14:13:18;25.70;45.90
36280;DHT22;22317;47.936;12.742;2022-10-15T14:15:49;27.90;44.70
36280;DHT22;22317;47.936;12.742;2022-10-15T14:18:17;29.70;40.70
36280;DHT22;22317;47.936;12.742;2022-10-15T14:20:47;31.30;38.90
36280;DHT22;22317;47.936;12.742;2022-10-15T14:23:22;32.70;36.10
36280;DHT22;22317;47.936;12.742;2022-10-15T14:26:01;34.00;33.50
36280;DHT22;22317;47.936;12.742;2022-10-15T14:28:29;35.10;32.20
36280;DHT22;22317;47.936;12.742;2022-10-15T14:30:56;36.20;31.80
36280;DHT22;22317;47.936;12.742;2022-10-15T14:33:32;37.10;30.20
36280;DHT22;22317;47.936;12.742;2022-10-15T14:38:41;39.00;26.80
36280;DHT22;22317;47.936;12.742;2022-10-15T14:41:24;39.50;26.80
36280;DHT22;22317;47.936;12.742;2022-10-15T14:44:14;38.90;24.60
36280;DHT22;22317;47.936;12.742;2022-10-15T14:46:44;36.10;25.20
36280;DHT22;22317;47.936;12.742;2022-10-15T14:49:29;34.70;24.80
36280;DHT22;22317;47.936;12.742;2022-10-15T14:52:09;34.60;24.90
36280;DHT22;22317;47.936;12.742;2022-10-15T14:54:43;34.40;26.60
36280;DHT22;22317;47.936;12.742;2022-10-15T14:57:25;35.00;27.30
36280;DHT22;22317;47.936;12.742;2022-10-15T14:59:53;37.00;27.70
36280;DHT22;22317;47.936;12.742;2022-10-15T15:02:22;37.00;26.80
36280;DHT22;22317;47.936;12.742;2022-10-15T15:07:38;38.80;25.00
36280;DHT22;22317;47.936;12.742;2022-10-15T15:10:06;39.30;24.50
36280;DHT22;22317;47.936;12.742;2022-10-15T15:12:33;38.70;23.10
36280;DHT22;22317;47.936;12.742;2022-10-15T15:14:59;36.10;22.80
36280;DHT22;22317;47.936;12.742;2022-10-15T15:17:29;34.70;23.00
36280;DHT22;22317;47.936;12.742;2022-10-15T15:19:56;33.30;23.50
36280;DHT22;22317;47.936;12.742;2022-10-15T15:22:33;32.00;24.10
36280;DHT22;22317;47.936;12.742;2022-10-15T15:25:02;30.70;24.90
36280;DHT22;22317;47.936;12.742;2022-10-15T15:27:30;29.70;25.70
36280;DHT22;22317;47.936;12.742;2022-10-15T15:34:51;27.00;27.80
36280;DHT22;22317;47.936;12.742;2022-10-15T15:37:21;26.20;28.40
36280;DHT22;22317;47.936;12.742;2022-10-15T15:39:48;25.60;29.20
36280;DHT22;22317;47.936;12.742;2022-10-15T15:42:21;25.00;30.00
36280;DHT22;22317;47.936;12.742;2022-10-15T15:44:49;24.40;30.70
36280;DHT22;22317;47.936;12.742;2022-10-15T15:47:16;23.90;31.70
36280;DHT22;22317;47.936;12.742;2022-10-15T15:49:41;23.50;32.60
36280;DHT22;22317;47.936;12.742;2022-10-15T15:52:11;23.10;33.50
36280;DHT22;22317;47.936;12.742;2022-10-15T15:54:41;22.70;34.30
36280;DHT22;22317;47.936;12.742;2022-10-15T15:57:07;22.30;35.00
36280;DHT22;22317;47.936;12.742;2022-10-15T15:59:34;21.90;35.70
36280;DHT22;22317;47.936;12.742;2022-10-15T16:02:00;21.60;36.40
36280;DHT22;22317;47.936;12.742;2022-10-15T16:09:18;20.70;38.30
36280;DHT22;22317;47.936;12.742;2022-10-15T16:11:47;20.50;39.00
36280;DHT22;22317;47.936;12.742;2022-10-15T16:19:06;19.70;40.50
36280;DHT22;22317;47.936;12.742;2022-10-15T16:23:58;19.20;41.60
36280;DHT22;22317;47.936;12.742;2022-10-15T16:33:46;18.50;43.60
36280;DHT22;22317;47.936;12.742;2022-10-15T16:36:13;18.30;44.00
36280;DHT22;22317;47.936;12.742;2022-10-15T16:38:39;18.10;44.40
36280;DHT22;22317;47.936;12.742;2022-10-15T16:41:06;18.00;44.90
36280;DHT22;22317;47.936;12.742;2022-10-15T16:43:33;17.90;45.40
36280;DHT22;22317;47.936;12.742;2022-10-15T16:46:02;17.80;45.80
36280;DHT22;22317;47.936;12.742;2022-10-15T16:48:29;17.60;46.10
36280;DHT22;22317;47.936;12.742;2022-10-15T16:51:07;17.50;46.40
36280;DHT22;22317;47.936;12.742;2022-10-15T16:53:34;17.20;46.70
36280;DHT22;22317;47.936;12.742;2022-10-15T16:56:06;17.20;47.20
36280;DHT22;22317;47.936;12.742;2022-10-15T17:01:04;17.00;47.90
36280;DHT22;22317;47.936;12.742;2022-10-15T17:03:36;16.90;48.30
36280;DHT22;22317;47.936;12.742;2022-10-15T17:06:05;16.80;48.70
36280;DHT22;22317;47.936;12.742;2022-10-15T17:09:07;16.70;49.00
36280;DHT22;22317;47.936;12.742;2022-10-15T17:11:34;16.50;49.30
36280;DHT22;22317;47.936;12.742;2022-10-15T17:14:04;16.40;49.60
36280;DHT22;22317;47.936;12.742;2022-10-15T17:16:36;16.40;50.00
36280;DHT22;22317;47.936;12.742;2022-10-15T17:19:03;16.30;50.30
36280;DHT22;22317;47.936;12.742;2022-10-15T17:21:29;16.20;50.60
36280;DHT22;22317;47.936;12.742;2022-10-15T17:23:57;16.10;51.00
36280;DHT22;22317;47.936;12.742;2022-10-15T17:26:27;16.00;51.30
36280;DHT22;22317;47.936;12.742;2022-10-15T17:28:54;15.90;51.60
36280;DHT22;22317;47.936;12.742;2022-10-15T17:31:22;15.90;51.90
36280;DHT22;22317;47.936;12.742;2022-10-15T17:33:48;15.80;52.10
36280;DHT22;22317;47.936;12.742;2022-10-15T17:36:20;15.70;52.40
36280;DHT22;22317;47.936;12.742;2022-10-15T17:38:46;15.60;52.60
36280;DHT22;22317;47.936;12.742;2022-10-15T17:41:23;15.60;52.80
36280;DHT22;22317;47.936;12.742;2022-10-15T17:43:49;15.50;53.10
36280;DHT22;22317;47.936;12.742;2022-10-15T17:46:18;15.40;53.30
36280;DHT22;22317;47.936;12.742;2022-10-15T17:48:45;15.40;53.60
36280;DHT22;22317;47.936;12.742;2022-10-15T17:51:13;15.40;53.80
36280;DHT22;22317;47.936;12.742;2022-10-15T17:53:40;15.40;54.00
36280;DHT22;22317;47.936;12.742;2022-10-15T17:56:26;15.30;54.20
36280;DHT22;22317;47.936;12.742;2022-10-15T17:58:59;15.30;54.30
36280;DHT22;22317;47.936;12.742;2022-10-15T18:01:27;15.30;54.50
36280;DHT22;22317;47.936;12.742;2022-10-15T18:03:54;15.30;54.70
36280;DHT22;22317;47.936;12.742;2022-10-15T18:06:22;15.20;54.90
36280;DHT22;22317;47.936;12.742;2022-10-15T18:08:49;15.20;55.10
36280;DHT22;22317;47.936;12.742;2022-10-15T18:16:09;15.10;55.50
36280;DHT22;22317;47.936;12.742;2022-10-15T18:18:35;15.00;55.60
36280;DHT22;22317;47.936;12.742;2022-10-15T18:21:05;15.00;55.80
36280;DHT22;22317;47.936;12.742;2022-10-15T18:23:31;15.00;56.00
36280;DHT22;22317;47.936;12.742;2022-10-15T18:26:09;14.90;56.10
36280;DHT22;22317;47.936;12.742;2022-10-15T18:28:35;14.90;56.30